LNI279 WIBB-WAHI
Flight info
| Callsign | LNI279 |
|---|---|
| Flight time | N/A |
| Altitude | 37000 |
| Route | JATAM A585 PLB G461 BORAS W12E BIDAK B469 HLM W17 CLP |
| Aircraft | B739/M-SDE2E3FGHIRWXY/LB1 |
Departure
| Time | 2026-04-28 03:09 |
|---|---|
| Airport | Sultan Syarif Kasim II International Airport / Roesmin Nurjadin AFB (WIBB) |
Arrival
| Time | N/A |
|---|---|
| Airport | Yogyakarta International Airport (WAHI) |
| Time | Latitude | Longitude | Altitude | Speed | Heading |
|---|---|---|---|---|---|
| 2026-04-28 02:48 | 0.46442 | 101.44678 | 141 ft | 0 kts | 91° |
| 2026-04-28 03:00 | 0.46442 | 101.44676 | 141 ft | 0 kts | 92° |
| 2026-04-28 03:00 | 0.46442 | 101.44672 | 141 ft | 2 kts | 91° |
| 2026-04-28 03:00 | 0.46442 | 101.44657 | 141 ft | 2 kts | 91° |
| 2026-04-28 03:01 | 0.46442 | 101.44643 | 141 ft | 2 kts | 91° |
| 2026-04-28 03:01 | 0.46443 | 101.44631 | 141 ft | 0 kts | 91° |
| 2026-04-28 03:01 | 0.46442 | 101.44618 | 141 ft | 2 kts | 72° |
| 2026-04-28 03:01 | 0.46435 | 101.44604 | 141 ft | 2 kts | 52° |
| 2026-04-28 03:02 | 0.46424 | 101.44595 | 141 ft | 2 kts | 30° |
| 2026-04-28 03:02 | 0.46410 | 101.44589 | 141 ft | 2 kts | 9° |
| 2026-04-28 03:02 | 0.46403 | 101.44589 | 141 ft | 1 kts | 359° |
| 2026-04-28 03:02 | 0.46400 | 101.44589 | 141 ft | 0 kts | 1° |
| 2026-04-28 03:04 | 0.46409 | 101.44589 | 141 ft | 2 kts | 1° |
| 2026-04-28 03:04 | 0.46438 | 101.44589 | 140 ft | 5 kts | 1° |
| 2026-04-28 03:04 | 0.46480 | 101.44591 | 140 ft | 6 kts | 1° |
| 2026-04-28 03:05 | 0.46532 | 101.44592 | 141 ft | 7 kts | 1° |
| 2026-04-28 03:05 | 0.46585 | 101.44594 | 142 ft | 7 kts | 1° |
| 2026-04-28 03:05 | 0.46628 | 101.44579 | 142 ft | 5 kts | 285° |
| 2026-04-28 03:05 | 0.46633 | 101.44537 | 143 ft | 6 kts | 273° |
| 2026-04-28 03:06 | 0.46638 | 101.44492 | 143 ft | 7 kts | 291° |
| 2026-04-28 03:06 | 0.46681 | 101.44467 | 144 ft | 8 kts | 359° |
| 2026-04-28 03:06 | 0.46743 | 101.44469 | 144 ft | 9 kts | 2° |
| 2026-04-28 03:06 | 0.46816 | 101.44471 | 144 ft | 11 kts | 1° |
| 2026-04-28 03:07 | 0.46902 | 101.44474 | 143 ft | 13 kts | 1° |
| 2026-04-28 03:07 | 0.47008 | 101.44482 | 141 ft | 15 kts | 16° |
| 2026-04-28 03:07 | 0.47076 | 101.44492 | 139 ft | 6 kts | 277° |
| 2026-04-28 03:07 | 0.47038 | 101.44477 | 140 ft | 6 kts | 183° |
| 2026-04-28 03:08 | 0.47030 | 101.44477 | 140 ft | 0 kts | 181° |
| 2026-04-28 03:08 | 0.47029 | 101.44477 | 140 ft | 0 kts | 181° |
| 2026-04-28 03:08 | 0.46805 | 101.44471 | 144 ft | 73 kts | 181° |
| 2026-04-28 03:08 | 0.46028 | 101.44447 | 135 ft | 148 kts | 181° |
| 2026-04-28 03:09 | 0.44823 | 101.44415 | 446 ft | 184 kts | 180° |
| 2026-04-28 03:09 | 0.43528 | 101.44398 | 1266 ft | 193 kts | 179° |
| 2026-04-28 03:09 | 0.42168 | 101.44434 | 1977 ft | 200 kts | 175° |
| 2026-04-28 03:09 | 0.40760 | 101.44643 | 2472 ft | 211 kts | 156° |
| 2026-04-28 03:10 | 0.39623 | 101.45627 | 2876 ft | 228 kts | 119° |
| 2026-04-28 03:10 | 0.38892 | 101.47079 | 3439 ft | 243 kts | 116° |
| 2026-04-28 03:10 | 0.37992 | 101.48570 | 4034 ft | 257 kts | 124° |
| 2026-04-28 03:10 | 0.36872 | 101.49995 | 4725 ft | 266 kts | 129° |
| 2026-04-28 03:11 | 0.35657 | 101.51402 | 5542 ft | 270 kts | 129° |
| 2026-04-28 03:11 | 0.34432 | 101.52807 | 6377 ft | 272 kts | 129° |
| 2026-04-28 03:11 | 0.33210 | 101.54233 | 7205 ft | 273 kts | 129° |
| 2026-04-28 03:11 | 0.31977 | 101.55692 | 7983 ft | 276 kts | 128° |
| 2026-04-28 03:12 | 0.30747 | 101.57153 | 8717 ft | 280 kts | 128° |
| 2026-04-28 03:12 | 0.29480 | 101.58662 | 9465 ft | 284 kts | 128° |
| 2026-04-28 03:12 | 0.28203 | 101.60180 | 9875 ft | 289 kts | 128° |
| 2026-04-28 03:12 | 0.26893 | 101.61736 | 9980 ft | 289 kts | 128° |
| 2026-04-28 03:13 | 0.25616 | 101.63251 | 9981 ft | 288 kts | 128° |
| 2026-04-28 03:13 | 0.24309 | 101.64803 | 9981 ft | 288 kts | 128° |
| 2026-04-28 03:13 | 0.23027 | 101.66326 | 9979 ft | 288 kts | 129° |
| 2026-04-28 03:13 | 0.21727 | 101.67871 | 9982 ft | 287 kts | 128° |
| 2026-04-28 03:14 | 0.20457 | 101.69379 | 9985 ft | 287 kts | 128° |
| 2026-04-28 03:14 | 0.19165 | 101.70915 | 9985 ft | 287 kts | 128° |
| 2026-04-28 03:14 | 0.17885 | 101.72437 | 9982 ft | 287 kts | 128° |
| 2026-04-28 03:14 | 0.16603 | 101.73959 | 9986 ft | 285 kts | 128° |
| 2026-04-28 03:15 | 0.15318 | 101.75487 | 9985 ft | 287 kts | 128° |
| 2026-04-28 03:15 | 0.14030 | 101.77016 | 9987 ft | 287 kts | 128° |
| 2026-04-28 03:15 | 0.12743 | 101.78548 | 9983 ft | 286 kts | 128° |
| 2026-04-28 03:15 | 0.11460 | 101.80069 | 9996 ft | 290 kts | 129° |
| 2026-04-28 03:16 | 0.10090 | 101.81664 | 10282 ft | 311 kts | 129° |
| 2026-04-28 03:16 | 0.08645 | 101.83327 | 10666 ft | 327 kts | 130° |
| 2026-04-28 03:16 | 0.07111 | 101.85085 | 11091 ft | 341 kts | 130° |
| 2026-04-28 03:16 | 0.05529 | 101.86905 | 11494 ft | 355 kts | 130° |
| 2026-04-28 03:17 | 0.03873 | 101.88811 | 11845 ft | 370 kts | 130° |
| 2026-04-28 03:17 | 0.00427 | 101.92780 | 13122 ft | 381 kts | 130° |
| 2026-04-28 03:17 | -0.01302 | 101.94769 | 13789 ft | 385 kts | 130° |
| 2026-04-28 03:18 | -0.03084 | 101.96822 | 14470 ft | 390 kts | 130° |
| 2026-04-28 03:18 | -0.04860 | 101.98870 | 14926 ft | 396 kts | 130° |
| 2026-04-28 03:18 | -0.06684 | 102.00974 | 15077 ft | 404 kts | 129° |
| 2026-04-28 03:18 | -0.08521 | 102.03093 | 15965 ft | 401 kts | 129° |
| 2026-04-28 03:19 | -0.10348 | 102.05199 | 16626 ft | 405 kts | 129° |
| 2026-04-28 03:19 | -0.12207 | 102.07344 | 17238 ft | 409 kts | 129° |
| 2026-04-28 03:19 | -0.14077 | 102.09502 | 17880 ft | 413 kts | 129° |
| 2026-04-28 03:19 | -0.15947 | 102.11661 | 18487 ft | 416 kts | 129° |
| 2026-04-28 03:20 | -0.17843 | 102.13849 | 18926 ft | 421 kts | 129° |
| 2026-04-28 03:20 | -0.19773 | 102.16075 | 18997 ft | 421 kts | 129° |
| 2026-04-28 03:20 | -0.21695 | 102.18293 | 19001 ft | 419 kts | 129° |
| 2026-04-28 03:20 | -0.23610 | 102.20500 | 19001 ft | 417 kts | 129° |
| 2026-04-28 03:21 | -0.25516 | 102.22694 | 19000 ft | 418 kts | 129° |
| 2026-04-28 03:21 | -0.27421 | 102.24886 | 19001 ft | 418 kts | 129° |
| 2026-04-28 03:21 | -0.29324 | 102.27074 | 19000 ft | 417 kts | 129° |
| 2026-04-28 03:21 | -0.31232 | 102.29271 | 19001 ft | 418 kts | 129° |
| 2026-04-28 03:22 | -0.33129 | 102.31453 | 19013 ft | 421 kts | 129° |
| 2026-04-28 03:22 | -0.35087 | 102.33707 | 19527 ft | 426 kts | 129° |
| 2026-04-28 03:22 | -0.36997 | 102.35910 | 20215 ft | 426 kts | 129° |
| 2026-04-28 03:22 | -0.38965 | 102.38180 | 20810 ft | 428 kts | 129° |
| 2026-04-28 03:23 | -0.40917 | 102.40433 | 21346 ft | 431 kts | 129° |
| 2026-04-28 03:23 | -0.42884 | 102.42702 | 21886 ft | 434 kts | 129° |
| 2026-04-28 03:23 | -0.44847 | 102.44968 | 22400 ft | 437 kts | 129° |
| 2026-04-28 03:23 | -0.46844 | 102.47272 | 22940 ft | 439 kts | 129° |
| 2026-04-28 03:24 | -0.48853 | 102.49591 | 23391 ft | 444 kts | 129° |
| 2026-04-28 03:24 | -0.50885 | 102.51930 | 23847 ft | 448 kts | 129° |
| 2026-04-28 03:24 | -0.52940 | 102.54288 | 24339 ft | 451 kts | 129° |
| 2026-04-28 03:24 | -0.55002 | 102.56648 | 24855 ft | 453 kts | 129° |
| 2026-04-28 03:25 | -0.57092 | 102.59040 | 25299 ft | 457 kts | 129° |
| 2026-04-28 03:25 | -0.59181 | 102.61430 | 25764 ft | 460 kts | 129° |
| 2026-04-28 03:25 | -0.61306 | 102.63862 | 26191 ft | 463 kts | 129° |
| 2026-04-28 03:25 | -0.63436 | 102.66300 | 26593 ft | 467 kts | 129° |
| 2026-04-28 03:26 | -0.65564 | 102.68737 | 27034 ft | 470 kts | 129° |
| 2026-04-28 03:26 | -0.67731 | 102.71218 | 27464 ft | 472 kts | 129° |
| 2026-04-28 03:26 | -0.69878 | 102.73668 | 27959 ft | 473 kts | 130° |
| 2026-04-28 03:26 | -0.72104 | 102.76085 | 28641 ft | 470 kts | 132° |
| 2026-04-28 03:27 | -0.74502 | 102.78269 | 29248 ft | 469 kts | 140° |
| 2026-04-28 03:27 | -0.77220 | 102.80084 | 29808 ft | 470 kts | 148° |
| 2026-04-28 03:27 | -0.80185 | 102.81487 | 30348 ft | 471 kts | 155° |
| 2026-04-28 03:27 | -0.83276 | 102.82619 | 30872 ft | 471 kts | 159° |
| 2026-04-28 03:28 | -0.86406 | 102.83607 | 31382 ft | 471 kts | 161° |
| 2026-04-28 03:28 | -0.89549 | 102.84520 | 31879 ft | 470 kts | 161° |
| 2026-04-28 03:28 | -0.92716 | 102.85403 | 32376 ft | 469 kts | 161° |
| 2026-04-28 03:28 | -0.95862 | 102.86272 | 32867 ft | 469 kts | 161° |
| 2026-04-28 03:29 | -0.98991 | 102.87141 | 33420 ft | 467 kts | 161° |
| 2026-04-28 03:29 | -1.02115 | 102.88054 | 33985 ft | 463 kts | 159° |
| 2026-04-28 03:29 | -1.05120 | 102.89153 | 34500 ft | 460 kts | 154° |
| 2026-04-28 03:29 | -1.07994 | 102.90552 | 34971 ft | 456 kts | 148° |
| 2026-04-28 03:30 | -1.10682 | 102.92233 | 35400 ft | 454 kts | 142° |
| 2026-04-28 03:30 | -1.13188 | 102.94205 | 35834 ft | 451 kts | 136° |
| 2026-04-28 03:30 | -1.15479 | 102.96387 | 36231 ft | 450 kts | 132° |
| 2026-04-28 03:30 | -1.17639 | 102.98650 | 36629 ft | 449 kts | 130° |
| 2026-04-28 03:31 | -1.19766 | 103.00942 | 36976 ft | 449 kts | 130° |
| 2026-04-28 03:31 | -1.21904 | 103.03229 | 36990 ft | 452 kts | 131° |
| 2026-04-28 03:31 | -1.26246 | 103.07730 | 36990 ft | 448 kts | 132° |
| 2026-04-28 03:32 | -1.30689 | 103.12167 | 36986 ft | 449 kts | 133° |
| 2026-04-28 03:32 | -1.35186 | 103.16579 | 36986 ft | 450 kts | 133° |
| 2026-04-28 03:33 | -1.39656 | 103.20932 | 36985 ft | 449 kts | 134° |
| 2026-04-28 03:33 | -1.44135 | 103.25288 | 36983 ft | 450 kts | 133° |
| 2026-04-28 03:34 | -1.48645 | 103.29673 | 36984 ft | 450 kts | 133° |
| 2026-04-28 03:34 | -1.53121 | 103.34027 | 36988 ft | 450 kts | 133° |
| 2026-04-28 03:35 | -1.57603 | 103.38387 | 36990 ft | 450 kts | 133° |
| 2026-04-28 03:35 | -1.62088 | 103.42752 | 36995 ft | 450 kts | 134° |
| 2026-04-28 03:36 | -1.66601 | 103.47142 | 36994 ft | 450 kts | 134° |
| 2026-04-28 03:36 | -1.71092 | 103.51512 | 36988 ft | 451 kts | 134° |
| 2026-04-28 03:37 | -1.75598 | 103.55896 | 36978 ft | 450 kts | 134° |
| 2026-04-28 03:37 | -1.80106 | 103.60282 | 36970 ft | 450 kts | 134° |
| 2026-04-28 03:38 | -1.84591 | 103.64648 | 36969 ft | 452 kts | 134° |
| 2026-04-28 03:38 | -1.89099 | 103.69035 | 36967 ft | 452 kts | 134° |
| 2026-04-28 03:39 | -1.93604 | 103.73419 | 36966 ft | 451 kts | 134° |
| 2026-04-28 03:39 | -1.98095 | 103.77792 | 36963 ft | 451 kts | 134° |
| 2026-04-28 03:40 | -2.02594 | 103.82171 | 36969 ft | 451 kts | 134° |
| 2026-04-28 03:40 | -2.07084 | 103.86544 | 36974 ft | 451 kts | 134° |
| 2026-04-28 03:41 | -2.11599 | 103.90939 | 36975 ft | 452 kts | 134° |
| 2026-04-28 03:41 | -2.16094 | 103.95318 | 36975 ft | 452 kts | 134° |
| 2026-04-28 03:42 | -2.20615 | 103.99720 | 36976 ft | 451 kts | 134° |
| 2026-04-28 03:42 | -2.25123 | 104.04112 | 36976 ft | 451 kts | 134° |
| 2026-04-28 03:43 | -2.29635 | 104.08506 | 36976 ft | 451 kts | 134° |
| 2026-04-28 03:43 | -2.34128 | 104.12884 | 36976 ft | 451 kts | 134° |
| 2026-04-28 03:44 | -2.38622 | 104.17262 | 36976 ft | 452 kts | 134° |
| 2026-04-28 03:44 | -2.43127 | 104.21651 | 36976 ft | 452 kts | 134° |
| 2026-04-28 03:45 | -2.47649 | 104.26057 | 36975 ft | 451 kts | 134° |
| 2026-04-28 03:45 | -2.52148 | 104.30441 | 36974 ft | 451 kts | 134° |
| 2026-04-28 03:46 | -2.56632 | 104.34812 | 36970 ft | 451 kts | 134° |
| 2026-04-28 03:46 | -2.61120 | 104.39185 | 36970 ft | 451 kts | 134° |
| 2026-04-28 03:47 | -2.65621 | 104.43573 | 36969 ft | 451 kts | 134° |
| 2026-04-28 03:47 | -2.70140 | 104.47978 | 36967 ft | 452 kts | 134° |
| 2026-04-28 03:48 | -2.74631 | 104.52357 | 36973 ft | 451 kts | 134° |
| 2026-04-28 03:48 | -2.79132 | 104.56747 | 36974 ft | 451 kts | 134° |
| 2026-04-28 03:49 | -2.83624 | 104.61130 | 36977 ft | 452 kts | 134° |
| 2026-04-28 03:49 | -2.88145 | 104.65565 | 36973 ft | 451 kts | 132° |
| 2026-04-28 03:50 | -2.92327 | 104.70241 | 36976 ft | 450 kts | 128° |
| 2026-04-28 03:50 | -2.96309 | 104.75056 | 36974 ft | 450 kts | 127° |
| 2026-04-28 03:51 | -3.00289 | 104.79884 | 36968 ft | 450 kts | 128° |
| 2026-04-28 03:51 | -3.04320 | 104.84721 | 36962 ft | 450 kts | 128° |
| 2026-04-28 03:52 | -3.08365 | 104.89539 | 36960 ft | 450 kts | 128° |
| 2026-04-28 03:52 | -3.12396 | 104.94325 | 36957 ft | 450 kts | 128° |
| 2026-04-28 03:53 | -3.16432 | 104.99111 | 36957 ft | 450 kts | 128° |
| 2026-04-28 03:53 | -3.20455 | 105.03879 | 36957 ft | 449 kts | 128° |
| 2026-04-28 03:54 | -3.24484 | 105.08656 | 36957 ft | 449 kts | 128° |
| 2026-04-28 03:54 | -3.28529 | 105.13451 | 36958 ft | 449 kts | 128° |
| 2026-04-28 03:55 | -3.32547 | 105.18217 | 36960 ft | 449 kts | 128° |
| 2026-04-28 03:55 | -3.36583 | 105.23004 | 36963 ft | 449 kts | 128° |
| 2026-04-28 03:56 | -3.40599 | 105.27769 | 36963 ft | 448 kts | 128° |
| 2026-04-28 03:56 | -3.44642 | 105.32564 | 36965 ft | 449 kts | 128° |
| 2026-04-28 03:57 | -3.48656 | 105.37326 | 36966 ft | 448 kts | 128° |
| 2026-04-28 03:57 | -3.52686 | 105.42110 | 36968 ft | 449 kts | 128° |
| 2026-04-28 03:58 | -3.56707 | 105.46883 | 36969 ft | 448 kts | 128° |
| 2026-04-28 03:58 | -3.60735 | 105.51666 | 36968 ft | 448 kts | 128° |
| 2026-04-28 03:59 | -3.64768 | 105.56449 | 36969 ft | 449 kts | 128° |
| 2026-04-28 03:59 | -3.68800 | 105.61225 | 36968 ft | 449 kts | 128° |
| 2026-04-28 04:00 | -3.72817 | 105.65984 | 36966 ft | 449 kts | 128° |
| 2026-04-28 04:00 | -3.76839 | 105.70751 | 36967 ft | 449 kts | 128° |
| 2026-04-28 04:01 | -3.80887 | 105.75549 | 36969 ft | 449 kts | 128° |
| 2026-04-28 04:01 | -3.84900 | 105.80306 | 36968 ft | 448 kts | 128° |
| 2026-04-28 04:02 | -3.88918 | 105.85072 | 36966 ft | 449 kts | 128° |
| 2026-04-28 04:02 | -3.92939 | 105.89841 | 36966 ft | 450 kts | 128° |
| 2026-04-28 04:03 | -3.97012 | 105.94672 | 36970 ft | 450 kts | 128° |
| 2026-04-28 04:03 | -4.01050 | 105.99442 | 36967 ft | 450 kts | 129° |
| 2026-04-28 04:04 | -4.05554 | 106.03806 | 36957 ft | 454 kts | 142° |
| 2026-04-28 04:04 | -4.10986 | 106.07069 | 36951 ft | 457 kts | 149° |
| 2026-04-28 04:05 | -4.16693 | 106.09969 | 36951 ft | 458 kts | 151° |
| 2026-04-28 04:05 | -4.22409 | 106.12817 | 36951 ft | 458 kts | 151° |
| 2026-04-28 04:06 | -4.28104 | 106.15699 | 36951 ft | 458 kts | 150° |
| 2026-04-28 04:06 | -4.33787 | 106.18616 | 36951 ft | 458 kts | 150° |
| 2026-04-28 04:07 | -4.39443 | 106.21543 | 36951 ft | 457 kts | 150° |
| 2026-04-28 04:07 | -4.45120 | 106.24494 | 36951 ft | 457 kts | 150° |
| 2026-04-28 04:08 | -4.50743 | 106.27422 | 36951 ft | 458 kts | 150° |
| 2026-04-28 04:08 | -4.56409 | 106.30375 | 36951 ft | 458 kts | 150° |
| 2026-04-28 04:09 | -4.62092 | 106.33338 | 36951 ft | 458 kts | 150° |
| 2026-04-28 04:09 | -4.67761 | 106.36294 | 36951 ft | 459 kts | 150° |
| 2026-04-28 04:10 | -4.73414 | 106.39242 | 36951 ft | 458 kts | 150° |
| 2026-04-28 04:10 | -4.79114 | 106.42214 | 36951 ft | 458 kts | 150° |
| 2026-04-28 04:11 | -4.84766 | 106.45155 | 36952 ft | 459 kts | 151° |
| 2026-04-28 04:11 | -4.90618 | 106.47729 | 36955 ft | 461 kts | 158° |
| 2026-04-28 04:12 | -4.96770 | 106.49694 | 36957 ft | 462 kts | 162° |
| 2026-04-28 04:12 | -5.02973 | 106.51483 | 36963 ft | 462 kts | 162° |
| 2026-04-28 04:13 | -5.09124 | 106.53254 | 36969 ft | 462 kts | 162° |
| 2026-04-28 04:13 | -5.15343 | 106.55074 | 36971 ft | 462 kts | 162° |
| 2026-04-28 04:14 | -5.21502 | 106.56901 | 36971 ft | 461 kts | 162° |
| 2026-04-28 04:14 | -5.27651 | 106.58739 | 36972 ft | 461 kts | 161° |
| 2026-04-28 04:15 | -5.33835 | 106.60593 | 36972 ft | 462 kts | 162° |
| 2026-04-28 04:16 | -5.43098 | 106.63374 | 36972 ft | 462 kts | 161° |
| 2026-04-28 04:16 | -5.49280 | 106.65231 | 36971 ft | 463 kts | 162° |
| 2026-04-28 04:17 | -5.55454 | 106.67087 | 36964 ft | 462 kts | 162° |
| 2026-04-28 04:17 | -5.61634 | 106.68943 | 36957 ft | 461 kts | 162° |
| 2026-04-28 04:18 | -5.67789 | 106.70794 | 36953 ft | 461 kts | 162° |
| 2026-04-28 04:18 | -5.73963 | 106.72650 | 36951 ft | 461 kts | 162° |
| 2026-04-28 04:19 | -5.80121 | 106.74502 | 36951 ft | 462 kts | 162° |
| 2026-04-28 04:19 | -5.86267 | 106.76350 | 36956 ft | 462 kts | 162° |
| 2026-04-28 04:20 | -5.92439 | 106.78208 | 36958 ft | 462 kts | 162° |
| 2026-04-28 04:20 | -5.98620 | 106.80068 | 36967 ft | 462 kts | 162° |
| 2026-04-28 04:21 | -6.04827 | 106.81937 | 36974 ft | 462 kts | 162° |
| 2026-04-28 04:21 | -6.10960 | 106.83781 | 36975 ft | 462 kts | 162° |
| 2026-04-28 04:22 | -6.17177 | 106.85654 | 36976 ft | 462 kts | 162° |
| 2026-04-28 04:22 | -6.23227 | 106.87899 | 36978 ft | 460 kts | 150° |
| 2026-04-28 04:22 | -6.25889 | 106.89657 | 36983 ft | 458 kts | 139° |
| 2026-04-28 04:23 | -6.28166 | 106.91870 | 36987 ft | 457 kts | 129° |
| 2026-04-28 04:23 | -6.31779 | 106.97128 | 36987 ft | 455 kts | 118° |
| 2026-04-28 04:24 | -6.34786 | 107.02717 | 36990 ft | 454 kts | 116° |
| 2026-04-28 04:24 | -6.37669 | 107.08375 | 36989 ft | 454 kts | 116° |
| 2026-04-28 04:25 | -6.40557 | 107.14022 | 36989 ft | 454 kts | 116° |
| 2026-04-28 04:25 | -6.43455 | 107.19626 | 36992 ft | 455 kts | 116° |
| 2026-04-28 04:26 | -6.46380 | 107.25243 | 36991 ft | 455 kts | 116° |
| 2026-04-28 04:26 | -6.49336 | 107.30900 | 36995 ft | 456 kts | 116° |
| 2026-04-28 04:27 | -6.52305 | 107.36553 | 37002 ft | 456 kts | 117° |
| 2026-04-28 04:27 | -6.55943 | 107.41781 | 36903 ft | 458 kts | 135° |
| 2026-04-28 04:27 | -6.58471 | 107.43784 | 36924 ft | 460 kts | 146° |
| 2026-04-28 04:28 | -6.61299 | 107.45291 | 36937 ft | 463 kts | 155° |
| 2026-04-28 04:28 | -6.67487 | 107.47348 | 36976 ft | 466 kts | 165° |
| 2026-04-28 04:29 | -6.73877 | 107.48673 | 37008 ft | 466 kts | 168° |
| 2026-04-28 04:29 | -6.80284 | 107.49831 | 37024 ft | 465 kts | 167° |
| 2026-04-28 04:30 | -6.86033 | 107.52048 | 37023 ft | 461 kts | 144° |